createdAt,value
2018-06-28T00:01:14.207Z,62.80
2018-06-28T00:03:46.177Z,62.01
2018-06-28T00:06:17.358Z,64.94
2018-06-28T00:08:48.541Z,65.46
2018-06-28T00:11:19.855Z,65.55
2018-06-28T00:13:51.057Z,67.27
2018-06-28T00:16:23.185Z,67.46
2018-06-28T00:18:55.027Z,68.18
2018-06-28T00:21:26.278Z,68.70
2018-06-28T00:23:57.659Z,67.73
2018-06-28T00:26:28.913Z,68.05
2018-06-28T00:29:00.662Z,67.89
2018-06-28T00:31:32.099Z,67.96
2018-06-28T00:34:03.382Z,68.57
2018-06-28T00:36:34.900Z,67.73
2018-06-28T00:39:08.393Z,67.88
2018-06-28T00:41:39.704Z,67.67
2018-06-28T00:44:11.650Z,67.66
2018-06-28T00:46:42.775Z,67.95
2018-06-28T00:49:14.004Z,68.26
2018-06-28T00:51:45.694Z,68.68
2018-06-28T00:54:17.158Z,69.00
2018-06-28T00:56:48.541Z,68.57
2018-06-28T00:59:19.899Z,68.05
2018-06-28T01:01:51.086Z,67.82
2018-06-28T01:04:22.254Z,68.57
2018-06-28T01:06:53.137Z,69.35
2018-06-28T01:09:24.171Z,70.09
2018-06-28T01:11:55.447Z,68.88
2018-06-28T01:14:27.031Z,69.39
2018-06-28T01:16:58.044Z,69.61
2018-06-28T01:19:29.152Z,70.74
2018-06-28T01:22:01.120Z,71.77
2018-06-28T01:24:32.283Z,71.18
2018-06-28T01:27:03.471Z,71.18
2018-06-28T01:29:34.591Z,71.61
2018-06-28T01:32:06.898Z,71.31
2018-06-28T01:34:37.786Z,71.01
2018-06-28T01:37:09.619Z,71.49
2018-06-28T01:39:40.783Z,71.60
2018-06-28T01:42:57.456Z,72.12
2018-06-28T01:45:28.733Z,72.48
2018-06-28T01:47:59.958Z,72.70
2018-06-28T01:50:32.259Z,72.87
2018-06-28T01:53:03.231Z,73.97
2018-06-28T01:55:34.257Z,73.98
2018-06-28T01:58:05.546Z,73.94
2018-06-28T02:00:37.403Z,73.97
2018-06-28T02:03:08.487Z,72.75
2018-06-28T02:05:41.029Z,72.88
2018-06-28T02:08:12.167Z,70.94
2018-06-28T02:10:43.320Z,70.95
2018-06-28T02:13:14.645Z,72.20
2018-06-28T02:15:46.313Z,73.27
2018-06-28T02:18:17.314Z,74.46
2018-06-28T02:20:48.544Z,75.27
2018-06-28T02:23:19.783Z,75.63
2018-06-28T02:25:51.075Z,76.33
2018-06-28T02:28:22.146Z,76.48
2018-06-28T02:30:52.683Z,76.73
2018-06-28T02:33:23.725Z,77.29
2018-06-28T02:35:54.641Z,77.96
2018-06-28T02:38:25.836Z,78.02
2018-06-28T02:40:57.229Z,78.20
2018-06-28T02:43:29.079Z,75.91
2018-06-28T02:46:00.106Z,75.87
2018-06-28T02:48:31.114Z,76.26
2018-06-28T02:51:02.154Z,77.74
2018-06-28T02:53:34.428Z,79.48
2018-06-28T02:56:05.678Z,79.58
2018-06-28T02:58:37.674Z,80.16
2018-06-28T03:01:09.827Z,80.26
2018-06-28T03:03:40.826Z,77.53
2018-06-28T03:06:11.740Z,77.64
2018-06-28T03:08:43.071Z,77.34
2018-06-28T03:11:13.999Z,77.39
2018-06-28T03:13:45.226Z,77.19
2018-06-28T03:16:16.193Z,78.63
2018-06-28T03:18:47.831Z,79.91
2018-06-28T03:21:18.913Z,80.17
2018-06-28T03:23:50.241Z,80.22
2018-06-28T03:26:21.596Z,80.29
2018-06-28T03:28:52.652Z,80.41
2018-06-28T03:31:23.990Z,81.53
2018-06-28T03:33:55.377Z,81.55
2018-06-28T03:36:26.430Z,81.73
2018-06-28T03:38:57.287Z,81.34
2018-06-28T03:41:28.501Z,81.49
2018-06-28T03:43:59.366Z,81.30
2018-06-28T03:46:30.431Z,81.50
2018-06-28T03:49:01.307Z,81.19
2018-06-28T03:51:32.488Z,80.86
2018-06-28T03:54:04.629Z,80.88
2018-06-28T03:56:35.830Z,80.42
2018-06-28T03:59:09.172Z,80.70
2018-06-28T04:01:40.459Z,80.51
2018-06-28T04:04:11.713Z,80.18
2018-06-28T04:06:42.745Z,80.23
2018-06-28T04:09:13.716Z,80.07
2018-06-28T04:11:46.750Z,80.25
2018-06-28T04:14:18.802Z,80.25
2018-06-28T04:16:50.667Z,80.90
2018-06-28T04:19:22.581Z,81.07
2018-06-28T04:21:54.527Z,81.83
2018-06-28T04:24:25.468Z,81.50
2018-06-28T04:26:57.084Z,81.72
2018-06-28T04:29:28.068Z,80.98
2018-06-28T04:31:59.129Z,80.46
2018-06-28T04:34:30.259Z,80.20
2018-06-28T04:37:01.520Z,79.91
2018-06-28T04:39:32.813Z,79.25
2018-06-28T04:42:03.820Z,78.20
2018-06-28T04:44:34.864Z,77.65
2018-06-28T04:47:05.087Z,77.56
2018-06-28T04:49:36.207Z,77.84
2018-06-28T04:52:07.263Z,78.45
2018-06-28T04:54:38.171Z,78.52
2018-06-28T04:57:09.336Z,77.68
2018-06-28T04:59:40.086Z,77.01
2018-06-28T05:02:10.812Z,76.40
2018-06-28T05:04:41.971Z,75.11
2018-06-28T05:07:13.929Z,74.36
2018-06-28T05:09:44.857Z,74.67
2018-06-28T05:12:16.227Z,75.07
2018-06-28T05:14:48.642Z,74.49
2018-06-28T05:17:20.003Z,73.92
2018-06-28T05:19:51.389Z,73.52
2018-06-28T05:22:22.532Z,73.17
2018-06-28T05:24:53.611Z,73.11
2018-06-28T05:27:24.778Z,71.95
2018-06-28T05:29:55.017Z,71.47
2018-06-28T05:32:26.028Z,71.50
2018-06-28T05:34:57.006Z,70.21
2018-06-28T05:37:28.115Z,69.94
2018-06-28T05:39:59.566Z,70.71
2018-06-28T05:42:30.592Z,69.16
2018-06-28T05:45:01.670Z,67.66
2018-06-28T05:47:32.763Z,66.47
2018-06-28T05:50:04.203Z,66.65
2018-06-28T05:52:35.348Z,66.41
2018-06-28T05:55:06.693Z,65.62
2018-06-28T05:57:37.782Z,65.33
2018-06-28T06:00:10.177Z,64.46
2018-06-28T06:02:41.492Z,64.77
2018-06-28T06:05:12.553Z,64.21
2018-06-28T06:07:43.710Z,64.04
2018-06-28T06:10:15.043Z,64.12
2018-06-28T06:12:46.748Z,64.24
2018-06-28T06:15:18.435Z,63.79
2018-06-28T06:17:50.627Z,62.58
2018-06-28T06:20:23.086Z,61.52
2018-06-28T06:22:54.257Z,58.91
2018-06-28T06:25:27.378Z,55.71
2018-06-28T06:27:58.458Z,51.96
2018-06-28T06:30:29.479Z,50.06
2018-06-28T06:33:00.547Z,48.76
2018-06-28T06:35:32.189Z,47.88
2018-06-28T06:38:04.035Z,46.56
2018-06-28T06:40:35.477Z,44.91
2018-06-28T06:43:06.972Z,43.42
2018-06-28T06:45:37.348Z,42.21
2018-06-28T06:48:09.394Z,41.17
2018-06-28T06:50:41.166Z,38.13
2018-06-28T06:53:13.343Z,37.52
2018-06-28T06:55:43.983Z,35.12
2018-06-28T06:58:15.372Z,33.96
2018-06-28T07:00:46.883Z,33.29
2018-06-28T07:03:20.398Z,32.53
2018-06-28T07:05:52.686Z,31.59
2018-06-28T07:08:26.490Z,32.31
2018-06-28T07:10:57.882Z,31.59
2018-06-28T07:13:29.912Z,31.49
2018-06-28T07:16:03.934Z,32.20
2018-06-28T07:18:35.564Z,32.03
2018-06-28T07:21:07.403Z,32.69
2018-06-28T07:23:38.910Z,33.09
2018-06-28T07:26:11.438Z,33.77
2018-06-28T07:28:42.748Z,32.34
2018-06-28T07:31:15.562Z,28.72
2018-06-28T07:33:46.846Z,29.11
2018-06-28T07:36:18.454Z,28.58
2018-06-28T07:38:50.363Z,29.57
2018-06-28T07:41:21.776Z,26.28
2018-06-28T07:43:53.282Z,25.48
2018-06-28T07:46:24.700Z,26.30
2018-06-28T07:48:56.202Z,28.15
2018-06-28T07:51:29.511Z,27.85
2018-06-28T07:54:01.503Z,27.06
2018-06-28T07:56:32.482Z,27.80
2018-06-28T07:59:04.356Z,28.89
2018-06-28T08:01:36.503Z,28.46
2018-06-28T08:04:08.340Z,27.47
2018-06-28T08:06:41.133Z,23.70
2018-06-28T08:09:12.397Z,22.62
2018-06-28T08:11:44.925Z,22.22
2018-06-28T08:14:16.309Z,23.63
2018-06-28T08:16:47.757Z,22.57
2018-06-28T08:19:19.428Z,22.59
2018-06-28T08:21:51.010Z,22.17
2018-06-28T08:24:22.448Z,22.24
2018-06-28T08:26:53.589Z,20.31
2018-06-28T08:29:24.599Z,21.72
2018-06-28T08:31:56.029Z,20.99
2018-06-28T08:34:28.350Z,20.25
2018-06-28T08:37:00.521Z,18.92
2018-06-28T08:39:32.709Z,21.86
2018-06-28T08:42:04.621Z,20.23
2018-06-28T08:44:37.055Z,18.82
2018-06-28T08:47:10.230Z,18.87
2018-06-28T08:49:42.403Z,20.11
2018-06-28T08:52:16.133Z,19.23
2018-06-28T08:54:51.839Z,19.11
2018-06-28T08:57:26.861Z,20.14
2018-06-28T08:59:58.111Z,19.39
2018-06-28T09:02:29.898Z,19.82
2018-06-28T09:05:02.119Z,19.59
2018-06-28T09:07:35.076Z,19.44
2018-06-28T09:10:06.714Z,18.62
2018-06-28T09:12:38.608Z,18.48
2018-06-28T09:15:09.937Z,18.22
2018-06-28T09:17:41.032Z,18.42
2018-06-28T09:20:13.764Z,17.89
2018-06-28T09:22:46.262Z,18.17
2018-06-28T09:25:19.195Z,18.12
2018-06-28T09:27:50.766Z,18.40
2018-06-28T09:30:24.062Z,17.82
2018-06-28T09:32:55.809Z,17.50
2018-06-28T09:35:29.024Z,16.97
2018-06-28T09:38:02.196Z,18.35
2018-06-28T09:40:36.971Z,19.96
2018-06-28T09:43:09.690Z,21.71
2018-06-28T09:45:41.898Z,21.49
2018-06-28T09:48:14.016Z,19.28
2018-06-28T09:50:47.358Z,18.32
2018-06-28T09:53:19.150Z,17.34
2018-06-28T09:55:50.632Z,17.61
2018-06-28T09:58:23.176Z,18.17
2018-06-28T10:00:54.493Z,17.60
2018-06-28T10:03:26.619Z,18.67
2018-06-28T10:06:00.065Z,17.98
2018-06-28T10:08:32.520Z,20.46
2018-06-28T10:11:05.264Z,21.98
2018-06-28T10:13:38.169Z,22.56
2018-06-28T10:16:09.384Z,22.24
2018-06-28T10:18:41.652Z,20.98
2018-06-28T10:21:14.750Z,19.22
2018-06-28T10:23:46.400Z,17.23
2018-06-28T10:26:18.198Z,17.26
2018-06-28T10:28:51.240Z,17.04
2018-06-28T10:31:24.749Z,16.62
2018-06-28T10:33:59.750Z,17.22
2018-06-28T10:36:32.174Z,15.70
2018-06-28T10:39:04.807Z,14.69
2018-06-28T10:41:37.344Z,14.08
2018-06-28T10:44:12.439Z,13.48
2018-06-28T10:46:45.641Z,14.30
2018-06-28T10:49:18.373Z,14.07
2018-06-28T10:51:49.709Z,14.42
2018-06-28T10:54:23.976Z,14.55
2018-06-28T10:56:58.192Z,14.89
2018-06-28T10:59:30.937Z,15.40
2018-06-28T11:02:05.495Z,14.29
2018-06-28T11:04:37.802Z,14.75
2018-06-28T11:07:10.616Z,14.83
2018-06-28T11:09:42.560Z,15.34
2018-06-28T11:12:15.161Z,14.93
2018-06-28T11:14:48.993Z,13.98
2018-06-28T11:17:20.997Z,14.27
2018-06-28T11:19:53.684Z,14.32
2018-06-28T11:22:24.611Z,15.01
2018-06-28T11:24:56.444Z,15.38
2018-06-28T11:27:29.844Z,16.11
2018-06-28T11:30:02.174Z,15.82
2018-06-28T11:32:34.023Z,16.25
2018-06-28T11:35:06.318Z,16.85
2018-06-28T11:37:41.361Z,16.39
2018-06-28T11:40:16.401Z,16.15
2018-06-28T11:42:49.942Z,16.84
2018-06-28T11:45:24.220Z,17.34
2018-06-28T11:47:56.352Z,18.62
2018-06-28T11:50:29.683Z,18.53
2018-06-28T11:53:05.589Z,18.44
2018-06-28T11:55:37.098Z,19.08
2018-06-28T11:58:09.638Z,20.77
2018-06-28T12:00:41.878Z,20.04
2018-06-28T12:03:14.656Z,18.75
2018-06-28T12:05:46.227Z,17.75
2018-06-28T12:08:18.664Z,18.93
2018-06-28T12:10:51.051Z,19.11
2018-06-28T12:13:22.880Z,18.86
2018-06-28T12:15:55.896Z,17.88
2018-06-28T12:18:28.294Z,17.65
2018-06-28T12:21:00.705Z,19.74
2018-06-28T12:23:34.420Z,20.00
2018-06-28T12:26:06.102Z,19.82
2018-06-28T12:28:38.102Z,19.91
2018-06-28T12:31:11.650Z,19.89
2018-06-28T12:33:43.297Z,19.26
2018-06-28T12:36:15.304Z,18.91
2018-06-28T12:38:47.752Z,18.91
2018-06-28T12:41:21.612Z,19.93
2018-06-28T12:43:53.069Z,18.49
2018-06-28T12:48:16.411Z,17.95
2018-06-28T12:50:48.547Z,16.85
2018-06-28T12:53:21.406Z,16.89
2018-06-28T12:56:27.981Z,15.88
2018-06-28T12:59:04.000Z,16.00
2018-06-28T13:01:35.606Z,15.90
2018-06-28T13:04:07.693Z,15.37
2018-06-28T13:06:39.481Z,16.11
2018-06-28T13:09:14.607Z,15.98
2018-06-28T13:11:46.939Z,16.76
2018-06-28T13:14:18.710Z,16.34
2018-06-28T13:16:50.267Z,17.90
2018-06-28T13:19:21.941Z,17.94
2018-06-28T13:21:53.273Z,18.11
2018-06-28T13:24:25.584Z,17.44
2018-06-28T13:26:58.784Z,16.58
2018-06-28T13:29:30.359Z,16.14
2018-06-28T13:32:01.829Z,16.19
2018-06-28T13:34:33.315Z,17.07
2018-06-28T13:37:04.575Z,16.97
2018-06-28T13:39:37.155Z,19.54
2018-06-28T13:42:10.467Z,17.75
2018-06-28T13:44:41.920Z,17.49
2018-06-28T13:47:14.097Z,17.16
2018-06-28T13:49:45.789Z,17.22
2018-06-28T13:52:22.656Z,17.41
2018-06-28T13:54:57.122Z,17.90
2018-06-28T13:57:32.162Z,18.11
2018-06-28T14:00:05.579Z,19.55
2018-06-28T14:02:37.474Z,19.31
2018-06-28T14:05:10.651Z,18.58
2018-06-28T14:07:44.575Z,18.17
2018-06-28T14:10:16.623Z,16.70
2018-06-28T14:12:47.950Z,17.26
2018-06-28T14:15:19.533Z,16.89
2018-06-28T14:17:51.774Z,16.51
2018-06-28T14:20:23.341Z,16.54
2018-06-28T14:22:54.872Z,16.87
2018-06-28T14:25:27.745Z,17.62
2018-06-28T14:27:59.376Z,17.47
2018-06-28T14:30:31.619Z,16.66
2018-06-28T14:33:03.016Z,15.92
2018-06-28T14:35:34.414Z,16.78
2018-06-28T14:38:06.774Z,16.87
2018-06-28T14:40:39.379Z,15.77
2018-06-28T14:43:11.876Z,15.49
2018-06-28T14:45:44.042Z,16.26
2018-06-28T14:48:15.952Z,18.19
2018-06-28T14:50:47.529Z,18.37
2018-06-28T14:53:18.927Z,18.51
2018-06-28T14:55:51.442Z,18.69
2018-06-28T14:58:23.773Z,19.55
2018-06-28T15:00:55.070Z,19.56
2018-06-28T15:03:26.439Z,19.65
2018-06-28T15:05:58.541Z,19.86
2018-06-28T15:08:30.219Z,20.65
2018-06-28T15:11:02.256Z,19.94
2018-06-28T15:13:34.537Z,19.77
2018-06-28T15:16:06.095Z,19.51
2018-06-28T15:18:37.486Z,20.12
2018-06-28T15:21:09.009Z,20.05
2018-06-28T15:23:41.055Z,19.98
2018-06-28T15:26:12.774Z,20.58
2018-06-28T15:28:45.170Z,20.63
2018-06-28T15:31:17.370Z,20.64
2018-06-28T15:33:49.938Z,21.12
2018-06-28T15:36:22.545Z,20.88
2018-06-28T15:38:53.790Z,22.02
2018-06-28T15:41:25.139Z,23.03
2018-06-28T15:43:56.987Z,24.81
2018-06-28T15:46:29.373Z,26.68
2018-06-28T15:49:01.142Z,27.09
2018-06-28T15:51:33.156Z,27.30
2018-06-28T15:54:06.184Z,27.37
2018-06-28T15:56:39.791Z,27.69
2018-06-28T15:59:11.517Z,27.58
2018-06-28T16:01:44.083Z,26.98
2018-06-28T16:04:15.574Z,27.20
2018-06-28T16:06:47.412Z,27.21
2018-06-28T16:09:18.745Z,27.03
2018-06-28T16:11:51.677Z,27.22
2018-06-28T16:14:25.008Z,27.70
2018-06-28T16:16:57.848Z,28.07
2018-06-28T16:19:29.257Z,28.00
2018-06-28T16:22:00.863Z,28.44
2018-06-28T16:24:33.090Z,29.02
2018-06-28T16:27:04.677Z,29.70
2018-06-28T16:29:37.553Z,29.60
2018-06-28T16:32:10.906Z,29.86
2018-06-28T16:34:42.781Z,29.95
2018-06-28T16:37:14.744Z,31.23
2018-06-28T16:39:46.012Z,33.59
2018-06-28T16:42:17.171Z,35.27
2018-06-28T16:44:48.854Z,36.44
2018-06-28T16:47:20.924Z,35.64
2018-06-28T16:49:53.381Z,36.05
2018-06-28T16:52:25.555Z,36.18
2018-06-28T16:54:57.206Z,35.47
2018-06-28T16:57:28.771Z,36.01
2018-06-28T17:00:00.685Z,36.43
2018-06-28T17:02:32.565Z,36.05
2018-06-28T17:05:05.135Z,36.85
2018-06-28T17:07:37.359Z,37.76
2018-06-28T17:10:09.888Z,37.87
2018-06-28T17:12:43.781Z,38.15
2018-06-28T17:15:15.893Z,38.15
2018-06-28T17:17:48.130Z,38.31
2018-06-28T17:20:20.819Z,37.64
2018-06-28T17:22:52.619Z,36.90
2018-06-28T17:25:24.487Z,37.76
2018-06-28T17:27:57.538Z,38.48
2018-06-28T17:30:29.358Z,38.42
2018-06-28T17:33:02.838Z,38.08
2018-06-28T17:35:35.570Z,38.43
2018-06-28T17:38:07.815Z,38.37
2018-06-28T17:40:39.835Z,38.51
2018-06-28T17:43:13.350Z,38.18
2018-06-28T17:45:44.904Z,39.11
2018-06-28T17:48:17.871Z,39.22
2018-06-28T17:50:53.389Z,39.71
2018-06-28T17:53:25.590Z,40.31
2018-06-28T17:55:57.667Z,40.55
2018-06-28T17:58:31.420Z,40.93
2018-06-28T18:01:05.089Z,41.92
2018-06-28T18:03:37.308Z,41.88
2018-06-28T18:06:10.454Z,42.68
2018-06-28T18:08:44.605Z,42.97
2018-06-28T18:11:19.028Z,42.48
2018-06-28T18:13:55.023Z,42.77
2018-06-28T18:16:29.537Z,42.89
2018-06-28T18:19:02.544Z,43.30
2018-06-28T18:21:35.730Z,43.79
2018-06-28T18:24:10.152Z,44.01
2018-06-28T18:26:43.117Z,44.10
2018-06-28T18:29:18.336Z,44.65
2018-06-28T18:31:51.580Z,44.91
2018-06-28T18:34:24.977Z,45.01
2018-06-28T18:36:58.883Z,45.17
2018-06-28T18:39:32.117Z,45.54
2018-06-28T18:42:05.194Z,45.33
2018-06-28T18:44:39.380Z,46.21
2018-06-28T18:47:12.584Z,47.59
2018-06-28T18:49:46.037Z,47.60
2018-06-28T18:52:19.656Z,47.32
2018-06-28T18:54:54.496Z,48.27
2018-06-28T18:57:28.798Z,48.75
2018-06-28T19:00:01.984Z,48.36
2018-06-28T19:02:36.642Z,47.58
2018-06-28T19:05:14.195Z,47.65
2018-06-28T19:07:47.400Z,48.02
2018-06-28T19:10:26.291Z,48.05
2018-06-28T19:13:00.799Z,47.99
2018-06-28T19:15:38.581Z,48.39
2018-06-28T19:18:13.098Z,48.20
2018-06-28T19:20:52.835Z,48.00
2018-06-28T19:23:31.818Z,48.08
2018-06-28T19:26:06.368Z,48.02
2018-06-28T19:28:44.050Z,48.53
2018-06-28T19:31:23.033Z,48.86
2018-06-28T19:33:57.791Z,49.15
2018-06-28T19:36:32.852Z,49.07
2018-06-28T19:40:16.289Z,49.53
2018-06-28T19:42:56.613Z,49.77
2018-06-28T19:45:31.390Z,49.87
2018-06-28T19:48:05.730Z,49.97
2018-06-28T19:50:45.137Z,49.49
2018-06-28T19:53:21.134Z,49.62
2018-06-28T19:55:56.382Z,50.23
2018-06-28T19:58:31.341Z,50.57
2018-06-28T20:01:10.475Z,50.47
2018-06-28T20:03:48.868Z,50.03
2018-06-28T20:06:38.454Z,50.11
2018-06-28T20:09:12.807Z,50.80
2018-06-28T20:11:46.805Z,50.61
2018-06-28T20:14:25.993Z,51.20
2018-06-28T20:18:08.582Z,52.04
2018-06-28T20:20:42.805Z,54.07
2018-06-28T20:23:16.982Z,54.55
2018-06-28T20:25:53.297Z,54.95
2018-06-28T20:28:31.255Z,54.71
2018-06-28T20:31:14.013Z,55.29
2018-06-28T20:33:57.379Z,56.50
2018-06-28T20:36:30.621Z,56.67
2018-06-28T20:39:08.015Z,57.81
2018-06-28T20:41:44.924Z,58.36
2018-06-28T20:44:20.941Z,58.75
2018-06-28T20:46:58.422Z,58.72
2018-06-28T20:49:32.088Z,59.77
2018-06-28T20:52:05.208Z,59.48
2018-06-28T20:54:38.393Z,59.28
2018-06-28T20:57:13.024Z,59.22
2018-06-28T20:59:47.443Z,59.50
2018-06-28T21:02:21.596Z,58.98
2018-06-28T21:04:53.985Z,59.59
2018-06-28T21:07:25.816Z,59.31
2018-06-28T21:09:58.459Z,60.46
2018-06-28T21:12:31.070Z,61.71
2018-06-28T21:15:02.559Z,62.04
2018-06-28T21:17:34.023Z,63.75
2018-06-28T21:20:06.299Z,63.43
2018-06-28T21:22:38.576Z,63.62
2018-06-28T21:25:11.668Z,62.54
2018-06-28T21:27:43.940Z,62.49
2018-06-28T21:30:15.699Z,62.80
2018-06-28T21:32:48.149Z,62.11
2018-06-28T21:35:21.591Z,62.04
2018-06-28T21:37:54.691Z,61.89
2018-06-28T21:40:27.870Z,61.31
2018-06-28T21:43:01.611Z,61.26
2018-06-28T21:45:33.532Z,61.15
2018-06-28T21:48:06.577Z,62.05
2018-06-28T21:50:38.522Z,62.10
2018-06-28T21:53:11.046Z,62.37
2018-06-28T21:55:43.216Z,62.80
2018-06-28T21:58:15.202Z,63.35
2018-06-28T22:00:48.532Z,63.03
2018-06-28T22:03:20.626Z,63.30
2018-06-28T22:05:53.466Z,63.53
2018-06-28T22:08:24.515Z,63.25
2018-06-28T22:10:55.047Z,63.65
2018-06-28T22:13:26.213Z,64.36
2018-06-28T22:15:57.076Z,64.26
2018-06-28T22:18:28.998Z,64.45
2018-06-28T22:21:00.449Z,64.72
2018-06-28T22:23:31.561Z,64.74
2018-06-28T22:26:03.330Z,67.62
2018-06-28T22:28:34.910Z,68.25
2018-06-28T22:31:06.528Z,69.23
2018-06-28T22:33:38.284Z,69.33
2018-06-28T22:36:09.858Z,69.08
2018-06-28T22:38:41.154Z,69.52
2018-06-28T22:41:13.356Z,70.34
2018-06-28T22:43:44.607Z,70.52
2018-06-28T22:46:15.660Z,70.70
2018-06-28T22:48:47.746Z,71.00
2018-06-28T22:51:19.915Z,71.77
2018-06-28T22:53:51.567Z,72.28
2018-06-28T22:56:22.771Z,72.50
2018-06-28T22:58:54.815Z,72.93
2018-06-28T23:01:26.127Z,73.91
2018-06-28T23:03:58.261Z,73.93
2018-06-28T23:06:30.598Z,74.61
2018-06-28T23:09:01.775Z,74.74
2018-06-28T23:11:32.923Z,75.22
2018-06-28T23:14:04.149Z,75.53
2018-06-28T23:16:34.837Z,75.75
2018-06-28T23:19:05.996Z,76.02
2018-06-28T23:21:37.001Z,76.28
2018-06-28T23:24:08.075Z,76.78
2018-06-28T23:26:39.177Z,77.29
2018-06-28T23:29:11.286Z,78.22
2018-06-28T23:31:42.362Z,78.76
2018-06-28T23:34:13.307Z,78.41
2018-06-28T23:36:44.737Z,79.06
2018-06-28T23:39:16.205Z,78.92
2018-06-28T23:41:48.072Z,79.06
2018-06-28T23:44:19.258Z,79.20
2018-06-28T23:46:51.649Z,78.81
2018-06-28T23:49:22.942Z,79.12
2018-06-28T23:51:54.039Z,79.01
2018-06-28T23:54:25.227Z,79.10
2018-06-28T23:56:56.769Z,78.78
2018-06-28T23:59:29.383Z,79.38
